Time;durP1;ratioP1;P1;durP2;ratioP2;P2;SDS_P1;SDS_P2;PMS_P1;PMS_P2;Temp;Humidity;BMP_temperature;BMP_pressure;BME280_temperature;BME280_humidity;BME280_pressure;Samples;Min_cycle;Max_cycle;Signal;HPM_P1;HPM_P2
2022/05/28 00:00:40;;;;;;;;;;;22.80;61.50;;;;;;4936433;29;19965;-71
2022/05/28 00:03:06;;;;;;;;;;;22.70;61.40;;;;;;4939347;29;19966;-69
2022/05/28 00:05:32;;;;;;;;;;;22.60;62.60;;;;;;4939726;29;19911;-71
2022/05/28 00:07:57;;;;;;;;;;;22.60;63.00;;;;;;4939963;29;19915;-73
2022/05/28 00:10:23;;;;;;;;;;;22.50;63.20;;;;;;4939842;29;19967;-69
2022/05/28 00:12:48;;;;;;;;;;;22.50;63.20;;;;;;4939323;29;20001;-68
2022/05/28 00:15:14;;;;;;;;;;;22.60;63.00;;;;;;4939426;29;20271;-64
2022/05/28 00:17:40;;;;;;;;;;;22.60;62.40;;;;;;4939266;29;20275;-61
2022/05/28 00:20:06;;;;;;;;;;;22.50;62.70;;;;;;4939168;29;19969;-63
2022/05/28 00:22:35;;;;;;;;;;;22.60;61.00;;;;;;4939002;29;20286;-66
2022/05/28 00:25:01;;;;;;;;;;;22.50;62.60;;;;;;4939307;29;19997;-69
2022/05/28 00:27:28;;;;;;;;;;;22.40;62.90;;;;;;4939209;29;19956;-63
2022/05/28 00:29:53;;;;;;;;;;;22.30;63.10;;;;;;4938924;29;20386;-69
2022/05/28 00:32:19;;;;;;;;;;;22.20;63.00;;;;;;4938979;29;19953;-71
2022/05/28 00:34:44;;;;;;;;;;;22.30;63.10;;;;;;4939203;29;19911;-69
2022/05/28 00:37:10;;;;;;;;;;;22.40;62.70;;;;;;4939158;29;19918;-71
2022/05/28 00:39:36;;;;;;;;;;;22.60;62.30;;;;;;4939050;29;19915;-62
2022/05/28 00:42:02;;;;;;;;;;;22.60;62.00;;;;;;4938734;29;19963;-70
2022/05/28 00:44:27;;;;;;;;;;;22.60;61.00;;;;;;4938997;29;19982;-72
2022/05/28 00:46:54;;;;;;;;;;;22.60;61.40;;;;;;4938700;29;19923;-71
2022/05/28 00:49:26;;;;;;;;;;;22.60;61.50;;;;;;4938639;29;19911;-71
2022/05/28 00:51:52;;;;;;;;;;;22.50;61.70;;;;;;4938591;29;20360;-70
2022/05/28 00:54:18;;;;;;;;;;;22.50;61.50;;;;;;4938828;29;19965;-66
2022/05/28 00:56:44;;;;;;;;;;;22.50;62.00;;;;;;4938697;29;20344;-71
2022/05/28 00:59:10;;;;;;;;;;;22.60;61.90;;;;;;4938434;29;20302;-69
2022/05/28 01:01:37;;;;;;;;;;;22.60;61.70;;;;;;4938624;29;19914;-64
2022/05/28 01:04:21;;;;;;;;;;;22.70;61.50;;;;;;4938639;29;20369;-64
2022/05/28 01:06:53;;;;;;;;;;;22.50;61.10;;;;;;4938299;29;19911;-69
2022/05/28 01:09:21;;;;;;;;;;;22.50;61.90;;;;;;4938321;29;19966;-67
2022/05/28 01:11:49;;;;;;;;;;;22.50;62.00;;;;;;4938455;29;19998;-68
2022/05/28 01:14:38;;;;;;;;;;;22.40;61.20;;;;;;4937810;29;20001;-70
2022/05/28 01:17:09;;;;;;;;;;;22.50;60.10;;;;;;4930486;29;19911;-68
2022/05/28 01:19:44;;;;;;;;;;;22.50;59.30;;;;;;4938056;29;20386;-68
2022/05/28 01:22:12;;;;;;;;;;;22.60;59.00;;;;;;4938120;29;20013;-63
2022/05/28 01:24:38;;;;;;;;;;;22.70;59.10;;;;;;4938023;29;19919;-70
2022/05/28 01:27:09;;;;;;;;;;;22.80;58.80;;;;;;4938185;29;20429;-71
2022/05/28 01:29:39;;;;;;;;;;;22.80;59.10;;;;;;4938068;29;19910;-66
2022/05/28 01:32:05;;;;;;;;;;;22.80;58.60;;;;;;4938873;29;19926;-71
2022/05/28 01:34:31;;;;;;;;;;;22.70;58.20;;;;;;4938488;29;19911;-67
2022/05/28 01:36:58;;;;;;;;;;;22.70;58.30;;;;;;4939467;29;19911;-66
2022/05/28 01:39:24;;;;;;;;;;;22.60;57.60;;;;;;4942776;29;19965;-64
2022/05/28 01:41:50;;;;;;;;;;;22.90;56.80;;;;;;4942922;29;19942;-64
2022/05/28 01:44:16;;;;;;;;;;;23.00;55.70;;;;;;4940963;29;20009;-66
2022/05/28 01:46:43;;;;;;;;;;;22.90;54.20;;;;;;4937666;29;19927;-60
2022/05/28 01:49:10;;;;;;;;;;;23.00;53.80;;;;;;4937563;29;19910;-66
2022/05/28 01:51:37;;;;;;;;;;;23.00;53.20;;;;;;4937681;29;19910;-67
2022/05/28 01:54:13;;;;;;;;;;;23.10;52.70;;;;;;4937380;29;20360;-69
2022/05/28 01:56:43;;;;;;;;;;;23.00;52.80;;;;;;4937761;29;19934;-63
2022/05/28 01:59:19;;;;;;;;;;;23.00;53.60;;;;;;4937572;29;19911;-66
2022/05/28 02:01:45;;;;;;;;;;;23.00;54.90;;;;;;4937272;29;19918;-68
2022/05/28 02:04:11;;;;;;;;;;;23.00;54.70;;;;;;4937127;29;19914;-65
2022/05/28 02:06:38;;;;;;;;;;;23.00;55.00;;;;;;4937586;29;20422;-66
2022/05/28 02:09:05;;;;;;;;;;;23.00;52.70;;;;;;4938012;29;19918;-68
2022/05/28 02:11:39;;;;;;;;;;;22.90;53.00;;;;;;4937510;29;19911;-69
2022/05/28 02:14:30;;;;;;;;;;;22.90;51.40;;;;;;4937660;29;19911;-68
2022/05/28 02:17:08;;;;;;;;;;;23.00;51.30;;;;;;4938506;29;20005;-65
2022/05/28 02:19:48;;;;;;;;;;;23.10;50.40;;;;;;4937999;29;19915;-65
2022/05/28 02:22:32;;;;;;;;;;;23.10;50.10;;;;;;4937247;29;19922;-63
2022/05/28 02:25:00;;;;;;;;;;;23.10;50.30;;;;;;4936284;29;20375;-66
2022/05/28 02:27:27;;;;;;;;;;;23.10;50.60;;;;;;4937250;29;19911;-64
2022/05/28 02:29:52;;;;;;;;;;;23.20;50.90;;;;;;4937027;29;20408;-67
2022/05/28 02:32:20;;;;;;;;;;;23.00;51.20;;;;;;4936683;29;20014;-60
2022/05/28 02:34:45;;;;;;;;;;;23.00;51.50;;;;;;4937110;29;20423;-70
2022/05/28 02:37:13;;;;;;;;;;;22.90;51.70;;;;;;4936885;29;19911;-67
2022/05/28 02:39:38;;;;;;;;;;;22.80;52.00;;;;;;4937160;29;19965;-61
2022/05/28 02:42:04;;;;;;;;;;;23.00;52.40;;;;;;4936609;29;20010;-60
2022/05/28 02:44:30;;;;;;;;;;;22.90;52.00;;;;;;4936787;29;19911;-62
2022/05/28 02:46:55;;;;;;;;;;;22.90;52.50;;;;;;4936487;29;19922;-62
2022/05/28 02:49:21;;;;;;;;;;;22.90;52.30;;;;;;4936651;29;20256;-65
2022/05/28 02:51:49;;;;;;;;;;;22.90;52.60;;;;;;4936044;29;20468;-67
2022/05/28 02:54:14;;;;;;;;;;;23.00;52.70;;;;;;4936501;29;20280;-63
2022/05/28 02:56:40;;;;;;;;;;;23.00;52.70;;;;;;4936542;29;20279;-65
2022/05/28 02:59:05;;;;;;;;;;;23.00;52.90;;;;;;4936777;29;19911;-63
2022/05/28 03:01:34;;;;;;;;;;;23.00;53.00;;;;;;4936814;29;19915;-64
2022/05/28 03:04:01;;;;;;;;;;;23.00;53.30;;;;;;4936561;29;19919;-64
2022/05/28 03:06:26;;;;;;;;;;;23.00;53.30;;;;;;4936563;29;20348;-61
2022/05/28 03:08:52;;;;;;;;;;;23.00;53.50;;;;;;4936609;29;19922;-66
2022/05/28 03:11:18;;;;;;;;;;;23.00;53.70;;;;;;4936591;29;20272;-64
2022/05/28 03:13:44;;;;;;;;;;;22.90;54.50;;;;;;4919297;29;19911;-70
2022/05/28 03:16:10;;;;;;;;;;;23.00;54.10;;;;;;4936714;29;19958;-71
2022/05/28 03:18:36;;;;;;;;;;;22.90;54.40;;;;;;4936599;29;19911;-71
2022/05/28 03:21:01;;;;;;;;;;;22.60;55.30;;;;;;4936366;29;19918;-72
2022/05/28 03:23:27;;;;;;;;;;;22.40;55.80;;;;;;4936300;29;20095;-71
2022/05/28 03:25:52;;;;;;;;;;;22.50;56.10;;;;;;4936631;29;19918;-70
2022/05/28 03:28:18;;;;;;;;;;;22.50;56.50;;;;;;4936743;29;19954;-67
2022/05/28 03:30:44;;;;;;;;;;;22.50;57.00;;;;;;4936219;29;19915;-71
2022/05/28 03:33:09;;;;;;;;;;;22.60;56.90;;;;;;4936279;29;20385;-67
2022/05/28 03:35:37;;;;;;;;;;;22.70;57.00;;;;;;4936615;29;20371;-62
2022/05/28 03:38:04;;;;;;;;;;;22.70;57.10;;;;;;4940305;29;19910;-68
2022/05/28 03:40:29;;;;;;;;;;;22.70;57.40;;;;;;4939924;29;19917;-66
2022/05/28 03:42:55;;;;;;;;;;;22.60;57.70;;;;;;4939795;29;19919;-63
2022/05/28 03:45:21;;;;;;;;;;;22.60;58.00;;;;;;4939748;29;19930;-66
2022/05/28 03:47:46;;;;;;;;;;;22.70;57.90;;;;;;4940103;29;20303;-64
2022/05/28 03:50:12;;;;;;;;;;;22.70;58.00;;;;;;4939625;29;19967;-66
2022/05/28 03:52:37;;;;;;;;;;;22.60;58.50;;;;;;4939758;29;19914;-70
2022/05/28 03:55:03;;;;;;;;;;;22.60;58.70;;;;;;4939743;29;19934;-70
2022/05/28 03:57:31;;;;;;;;;;;22.60;58.60;;;;;;4939633;29;20279;-69
2022/05/28 03:59:57;;;;;;;;;;;22.60;58.50;;;;;;4939799;29;19994;-73
2022/05/28 04:02:23;;;;;;;;;;;22.40;59.10;;;;;;4939512;29;20291;-72
2022/05/28 04:04:49;;;;;;;;;;;22.40;59.30;;;;;;4939604;29;20086;-72
2022/05/28 04:07:15;;;;;;;;;;;22.40;59.30;;;;;;4939526;29;19918;-72
2022/05/28 04:09:40;;;;;;;;;;;22.50;59.00;;;;;;4939599;29;20271;-71
2022/05/28 04:12:06;;;;;;;;;;;22.30;59.10;;;;;;4939624;29;19911;-65
2022/05/28 04:14:32;;;;;;;;;;;22.40;59.20;;;;;;4939502;29;19911;-64
2022/05/28 04:16:57;;;;;;;;;;;22.40;58.90;;;;;;4939185;29;19918;-67
2022/05/28 04:19:23;;;;;;;;;;;22.30;58.80;;;;;;4939246;29;19911;-63
2022/05/28 04:21:48;;;;;;;;;;;22.30;58.70;;;;;;4939158;29;20006;-63
2022/05/28 04:24:14;;;;;;;;;;;22.20;58.90;;;;;;4939374;29;20006;-60
2022/05/28 04:26:40;;;;;;;;;;;22.30;58.60;;;;;;4939323;29;20296;-64
2022/05/28 04:29:06;;;;;;;;;;;22.40;58.40;;;;;;4939323;29;19960;-70
2022/05/28 04:31:32;;;;;;;;;;;22.40;58.50;;;;;;4938868;29;19934;-62
2022/05/28 04:33:57;;;;;;;;;;;22.40;58.80;;;;;;4939087;29;20116;-70
2022/05/28 04:36:23;;;;;;;;;;;22.30;59.00;;;;;;4939099;29;20323;-72
2022/05/28 04:38:49;;;;;;;;;;;22.30;59.00;;;;;;4938981;29;20377;-70
2022/05/28 04:41:14;;;;;;;;;;;22.30;59.10;;;;;;4939026;29;20391;-70
2022/05/28 04:43:40;;;;;;;;;;;22.30;59.40;;;;;;4938851;29;20354;-72
2022/05/28 04:46:05;;;;;;;;;;;22.00;60.60;;;;;;4938577;29;19922;-66
2022/05/28 04:48:31;;;;;;;;;;;21.80;62.20;;;;;;4937767;29;19914;-69
2022/05/28 04:50:57;;;;;;;;;;;21.70;63.30;;;;;;4938889;29;19911;-70
2022/05/28 04:53:22;;;;;;;;;;;21.60;63.20;;;;;;4938556;29;20371;-68
2022/05/28 04:55:48;;;;;;;;;;;21.70;63.40;;;;;;4938514;29;20319;-66
2022/05/28 04:58:14;;;;;;;;;;;21.80;63.20;;;;;;4939269;29;19967;-63
2022/05/28 05:00:40;;;;;;;;;;;22.00;62.50;;;;;;4938552;29;19911;-63
2022/05/28 05:03:06;;;;;;;;;;;22.10;62.20;;;;;;4938177;29;19919;-68
2022/05/28 05:05:32;;;;;;;;;;;22.10;62.00;;;;;;4938202;29;20420;-67
2022/05/28 05:07:58;;;;;;;;;;;22.10;61.90;;;;;;4938546;29;19915;-64
2022/05/28 05:10:24;;;;;;;;;;;22.10;62.00;;;;;;4938376;29;19918;-71
2022/05/28 05:12:49;;;;;;;;;;;22.10;61.90;;;;;;4938321;29;19911;-69
2022/05/28 05:15:15;;;;;;;;;;;22.10;61.70;;;;;;4938279;29;19976;-72
2022/05/28 05:17:41;;;;;;;;;;;22.20;61.60;;;;;;4938052;29;19911;-66
2022/05/28 05:20:07;;;;;;;;;;;22.20;60.90;;;;;;4938232;29;19988;-70
2022/05/28 05:22:33;;;;;;;;;;;22.20;61.10;;;;;;4938097;29;19922;-76
2022/05/28 05:24:59;;;;;;;;;;;22.30;61.10;;;;;;4941750;29;19915;-72
2022/05/28 05:27:24;;;;;;;;;;;22.20;61.30;;;;;;4938033;29;19920;-73
2022/05/28 05:29:50;;;;;;;;;;;22.30;61.00;;;;;;4938093;29;19911;-75
2022/05/28 05:32:15;;;;;;;;;;;22.20;61.10;;;;;;4937967;29;19915;-73
2022/05/28 05:34:42;;;;;;;;;;;22.10;61.50;;;;;;4938167;29;19911;-74
2022/05/28 05:37:08;;;;;;;;;;;22.10;61.90;;;;;;4938064;29;19961;-71
2022/05/28 05:39:33;;;;;;;;;;;22.00;62.60;;;;;;4920938;29;19954;-67
2022/05/28 05:41:59;;;;;;;;;;;21.90;63.40;;;;;;4937545;29;20418;-66
2022/05/28 05:44:25;;;;;;;;;;;21.90;63.80;;;;;;4937925;29;19915;-74
2022/05/28 05:46:50;;;;;;;;;;;21.80;64.20;;;;;;4937240;29;20336;-71
2022/05/28 05:49:16;;;;;;;;;;;21.60;65.20;;;;;;4937497;29;20364;-71
2022/05/28 05:51:46;;;;;;;;;;;21.50;66.00;;;;;;4937268;29;19911;-68
2022/05/28 05:54:12;;;;;;;;;;;21.50;66.10;;;;;;4937483;29;19917;-66
2022/05/28 05:56:38;;;;;;;;;;;21.40;65.80;;;;;;4937447;29;20363;-70
2022/05/28 05:59:03;;;;;;;;;;;21.30;66.80;;;;;;4937128;29;19917;-63
2022/05/28 06:01:29;;;;;;;;;;;20.70;69.60;;;;;;4937092;29;19918;-63
2022/05/28 06:03:54;;;;;;;;;;;20.60;70.60;;;;;;4937465;29;20363;-69
2022/05/28 06:06:20;;;;;;;;;;;20.70;71.30;;;;;;4937532;29;20287;-62
2022/05/28 06:08:46;;;;;;;;;;;20.50;75.50;;;;;;4937467;29;20348;-71
2022/05/28 06:11:12;;;;;;;;;;;20.30;76.20;;;;;;4937458;29;19937;-70
2022/05/28 06:13:37;;;;;;;;;;;19.90;77.40;;;;;;4937079;29;20411;-68
2022/05/28 06:16:03;;;;;;;;;;;19.80;77.70;;;;;;4937287;29;19911;-68
2022/05/28 06:18:29;;;;;;;;;;;19.60;77.70;;;;;;4937055;29;20001;-67
2022/05/28 06:20:55;;;;;;;;;;;19.60;77.90;;;;;;4936743;29;19918;-66
2022/05/28 06:23:20;;;;;;;;;;;19.50;77.00;;;;;;4919394;29;19919;-66
2022/05/28 06:25:46;;;;;;;;;;;19.20;76.00;;;;;;4936030;29;19911;-70
2022/05/28 06:28:12;;;;;;;;;;;19.40;77.10;;;;;;4936702;29;19993;-69
2022/05/28 06:30:39;;;;;;;;;;;19.20;74.30;;;;;;4936682;29;19961;-63
2022/05/28 06:33:05;;;;;;;;;;;19.00;76.00;;;;;;4936887;29;19911;-67
2022/05/28 06:35:31;;;;;;;;;;;18.70;76.40;;;;;;4937768;29;20327;-63
2022/05/28 06:37:56;;;;;;;;;;;18.60;78.30;;;;;;4937604;29;20362;-63
2022/05/28 06:40:22;;;;;;;;;;;18.90;75.90;;;;;;4937662;29;19915;-65
2022/05/28 06:42:49;;;;;;;;;;;19.00;74.30;;;;;;4937772;29;19926;-63
2022/05/28 06:45:15;;;;;;;;;;;18.80;75.80;;;;;;4937569;29;19918;-64
2022/05/28 06:47:41;;;;;;;;;;;18.80;74.80;;;;;;4937662;29;20387;-64
2022/05/28 06:52:52;;;;;;;;;;;18.70;74.60;;;;;;4936619;29;19918;-65
2022/05/28 06:55:17;;;;;;;;;;;19.00;74.60;;;;;;4936616;29;19915;-62
2022/05/28 06:57:43;;;;;;;;;;;19.10;73.50;;;;;;4936630;29;19921;-65
2022/05/28 07:00:08;;;;;;;;;;;19.30;72.10;;;;;;4936269;29;19911;-68
2022/05/28 07:02:34;;;;;;;;;;;19.40;71.80;;;;;;4936488;29;19925;-69
2022/05/28 07:04:59;;;;;;;;;;;19.10;71.50;;;;;;4937985;29;19910;-63
2022/05/28 07:07:25;;;;;;;;;;;19.30;71.90;;;;;;4944410;29;19918;-61
2022/05/28 07:09:50;;;;;;;;;;;19.40;71.70;;;;;;4946443;29;19910;-65
2022/05/28 07:12:16;;;;;;;;;;;19.50;71.20;;;;;;4950774;29;19910;-62
2022/05/28 07:14:42;;;;;;;;;;;19.40;70.80;;;;;;4951360;28;19965;-60
2022/05/28 07:17:07;;;;;;;;;;;19.20;72.00;;;;;;4952455;29;19911;-63
2022/05/28 07:19:33;;;;;;;;;;;19.20;73.70;;;;;;4950820;29;19911;-62
2022/05/28 07:21:59;;;;;;;;;;;18.90;72.00;;;;;;4951281;29;19911;-62
2022/05/28 07:24:25;;;;;;;;;;;19.10;73.30;;;;;;4942301;29;19918;-63
2022/05/28 07:26:53;;;;;;;;;;;19.00;72.80;;;;;;4942196;29;20259;-66
2022/05/28 07:29:19;;;;;;;;;;;19.20;72.60;;;;;;4942667;29;19917;-64
2022/05/28 07:31:45;;;;;;;;;;;19.30;71.80;;;;;;4942324;29;19911;-62
2022/05/28 07:34:11;;;;;;;;;;;19.00;73.60;;;;;;4942358;29;19979;-65
2022/05/28 07:36:36;;;;;;;;;;;19.00;72.60;;;;;;4942288;29;20418;-65
2022/05/28 07:39:02;;;;;;;;;;;18.80;73.10;;;;;;4942166;29;19911;-61
2022/05/28 07:41:28;;;;;;;;;;;18.80;72.80;;;;;;4942039;29;20359;-61
2022/05/28 07:43:54;;;;;;;;;;;18.60;73.80;;;;;;4942238;29;19923;-66
2022/05/28 07:46:23;;;;;;;;;;;18.60;74.10;;;;;;4942191;29;20431;-76
2022/05/28 07:48:53;;;;;;;;;;;18.50;74.40;;;;;;4942439;29;20328;-63
2022/05/28 07:51:18;;;;;;;;;;;18.40;74.70;;;;;;4942177;29;19970;-76
2022/05/28 07:53:44;;;;;;;;;;;18.50;74.00;;;;;;4942094;29;19911;-75
2022/05/28 07:56:10;;;;;;;;;;;18.60;72.80;;;;;;4942029;29;20322;-62
2022/05/28 07:58:35;;;;;;;;;;;18.80;73.00;;;;;;4942357;29;19917;-61
2022/05/28 08:01:01;;;;;;;;;;;18.80;71.80;;;;;;4941976;29;19915;-60
2022/05/28 08:03:26;;;;;;;;;;;18.90;71.50;;;;;;4949807;29;19930;-66
2022/05/28 08:05:53;;;;;;;;;;;18.80;72.20;;;;;;4941948;29;20304;-68
2022/05/28 08:08:20;;;;;;;;;;;18.90;72.50;;;;;;4941908;29;19911;-62
2022/05/28 08:10:46;;;;;;;;;;;18.90;72.90;;;;;;4942157;29;19911;-62
2022/05/28 08:13:13;;;;;;;;;;;18.90;71.60;;;;;;4942194;29;19911;-68
2022/05/28 08:15:41;;;;;;;;;;;18.80;71.60;;;;;;4941928;29;19983;-64
2022/05/28 08:18:07;;;;;;;;;;;18.80;71.10;;;;;;4942310;29;19974;-71
2022/05/28 08:23:18;;;;;;;;;;;18.70;71.00;;;;;;4939630;29;19927;-61
2022/05/28 08:25:44;;;;;;;;;;;18.80;68.30;;;;;;4922473;29;19918;-63
2022/05/28 08:28:11;;;;;;;;;;;18.80;68.40;;;;;;4938694;29;19911;-62
2022/05/28 08:30:40;;;;;;;;;;;18.60;68.80;;;;;;4938927;29;19917;-62
2022/05/28 08:33:06;;;;;;;;;;;18.50;69.60;;;;;;4939114;29;20283;-64
2022/05/28 08:35:32;;;;;;;;;;;18.40;70.20;;;;;;4938626;29;19911;-65
2022/05/28 08:38:02;;;;;;;;;;;18.30;69.50;;;;;;4938182;29;19919;-64
2022/05/28 08:40:27;;;;;;;;;;;18.30;69.40;;;;;;4938185;29;19918;-65
2022/05/28 08:42:53;;;;;;;;;;;18.30;68.40;;;;;;4938253;29;19915;-65
2022/05/28 08:45:19;;;;;;;;;;;18.20;67.90;;;;;;4938442;29;19914;-65
2022/05/28 08:47:46;;;;;;;;;;;18.10;68.40;;;;;;4938502;29;19922;-64
2022/05/28 08:50:12;;;;;;;;;;;18.20;68.10;;;;;;4938724;29;19951;-63
2022/05/28 08:52:45;;;;;;;;;;;18.20;67.90;;;;;;4938400;29;19911;-65
2022/05/28 08:55:13;;;;;;;;;;;18.20;67.80;;;;;;4938676;29;19994;-64
2022/05/28 08:57:41;;;;;;;;;;;18.20;67.30;;;;;;4938341;29;19915;-67
2022/05/28 09:00:16;;;;;;;;;;;18.20;67.00;;;;;;4938664;29;19917;-64
2022/05/28 09:02:55;;;;;;;;;;;18.20;67.20;;;;;;4921374;29;19989;-63
2022/05/28 09:05:27;;;;;;;;;;;18.20;66.80;;;;;;4938406;29;19911;-64
2022/05/28 09:07:54;;;;;;;;;;;18.20;67.20;;;;;;4938532;29;20394;-63
2022/05/28 09:10:20;;;;;;;;;;;18.20;67.00;;;;;;4938509;29;20399;-62
2022/05/28 09:12:55;;;;;;;;;;;18.30;67.40;;;;;;4938424;29;19992;-65
2022/05/28 09:15:21;;;;;;;;;;;18.40;66.60;;;;;;4920923;29;19918;-65
2022/05/28 09:17:48;;;;;;;;;;;18.30;67.30;;;;;;4938283;29;19911;-64
2022/05/28 09:20:20;;;;;;;;;;;18.30;66.90;;;;;;4938146;29;19911;-64
2022/05/28 09:22:46;;;;;;;;;;;18.10;66.30;;;;;;4937872;29;20432;-63
2022/05/28 09:25:14;;;;;;;;;;;18.00;66.60;;;;;;4937954;29;20289;-63
2022/05/28 09:27:54;;;;;;;;;;;18.00;67.40;;;;;;4938115;29;19918;-62
2022/05/28 09:30:19;;;;;;;;;;;18.00;68.00;;;;;;4937900;29;20452;-65
2022/05/28 09:32:51;;;;;;;;;;;18.00;66.30;;;;;;4937563;29;19915;-65
2022/05/28 09:35:35;;;;;;;;;;;17.80;67.20;;;;;;4937217;29;19933;-64
2022/05/28 09:38:01;;;;;;;;;;;17.70;66.90;;;;;;4937669;29;19967;-65
2022/05/28 09:40:33;;;;;;;;;;;17.60;67.70;;;;;;4920785;29;19910;-65
2022/05/28 09:43:14;;;;;;;;;;;17.60;66.20;;;;;;4937292;29;19965;-64
2022/05/28 09:45:42;;;;;;;;;;;17.80;67.40;;;;;;4937461;29;19988;-64
2022/05/28 09:48:16;;;;;;;;;;;17.70;66.50;;;;;;4937599;29;19925;-64
2022/05/28 09:50:42;;;;;;;;;;;17.90;67.40;;;;;;4937467;29;20355;-63
2022/05/28 09:55:55;;;;;;;;;;;18.10;66.20;;;;;;4937777;29;19918;-62
2022/05/28 09:58:22;;;;;;;;;;;18.30;65.50;;;;;;4937346;29;19958;-66
2022/05/28 10:00:48;;;;;;;;;;;18.30;65.30;;;;;;4937218;29;20009;-64
2022/05/28 10:06:10;;;;;;;;;;;18.50;63.70;;;;;;4937070;29;20289;-65
2022/05/28 10:08:35;;;;;;;;;;;18.40;63.00;;;;;;4937121;29;19942;-65
2022/05/28 10:11:02;;;;;;;;;;;18.30;63.90;;;;;;4937102;29;19911;-62
2022/05/28 10:13:30;;;;;;;;;;;18.30;63.20;;;;;;4937063;29;19962;-68
2022/05/28 10:15:57;;;;;;;;;;;18.40;62.60;;;;;;4936944;29;20001;-60
2022/05/28 10:18:26;;;;;;;;;;;18.40;63.50;;;;;;4936812;29;20283;-60
2022/05/28 10:21:02;;;;;;;;;;;18.40;61.80;;;;;;4936759;29;19918;-59
2022/05/28 10:23:28;;;;;;;;;;;18.30;63.60;;;;;;4936951;29;19958;-62
2022/05/28 10:25:54;;;;;;;;;;;18.60;63.00;;;;;;4936875;29;19950;-64
2022/05/28 10:28:30;;;;;;;;;;;18.50;62.50;;;;;;4936939;29;19911;-63
2022/05/28 10:30:56;;;;;;;;;;;18.70;61.90;;;;;;4936686;29;20359;-64
2022/05/28 10:33:23;;;;;;;;;;;18.70;62.10;;;;;;4937076;29;19911;-66
2022/05/28 10:35:49;;;;;;;;;;;18.60;60.90;;;;;;4936644;29;20468;-64
2022/05/28 10:38:16;;;;;;;;;;;18.40;61.20;;;;;;4936755;29;19914;-64
2022/05/28 10:40:50;;;;;;;;;;;18.20;62.00;;;;;;4936775;29;19911;-65
2022/05/28 10:43:24;;;;;;;;;;;18.30;62.60;;;;;;4936468;29;19929;-66
2022/05/28 10:45:52;;;;;;;;;;;18.30;63.20;;;;;;4935636;29;20302;-64
2022/05/28 10:48:37;;;;;;;;;;;18.20;61.70;;;;;;4937142;29;19915;-66
2022/05/28 10:51:28;;;;;;;;;;;18.40;62.60;;;;;;4942722;29;20282;-63
2022/05/28 10:54:09;;;;;;;;;;;18.20;61.60;;;;;;4942236;29;20380;-62
2022/05/28 10:56:45;;;;;;;;;;;18.20;62.30;;;;;;4945916;29;19918;-63
2022/05/28 10:59:11;;;;;;;;;;;18.20;61.50;;;;;;4945839;29;19923;-60
2022/05/28 11:01:44;;;;;;;;;;;18.40;60.90;;;;;;4935308;29;19918;-63
2022/05/28 11:04:13;;;;;;;;;;;18.50;60.80;;;;;;4935129;29;19919;-63
2022/05/28 11:06:57;;;;;;;;;;;18.70;60.10;;;;;;4935895;29;19915;-66
2022/05/28 11:09:41;;;;;;;;;;;18.80;60.00;;;;;;4935795;29;19917;-63
2022/05/28 11:12:25;;;;;;;;;;;18.70;61.10;;;;;;4935750;29;20367;-68
2022/05/28 11:14:53;;;;;;;;;;;18.80;60.00;;;;;;4935914;29;19915;-65
2022/05/28 11:17:20;;;;;;;;;;;18.80;60.50;;;;;;4935851;29;19910;-65
2022/05/28 11:19:55;;;;;;;;;;;19.00;61.20;;;;;;4935791;29;20002;-64
2022/05/28 11:22:35;;;;;;;;;;;19.00;60.10;;;;;;4949928;29;19923;-64
2022/05/28 11:25:09;;;;;;;;;;;18.90;60.10;;;;;;4935621;29;19957;-76
2022/05/28 11:27:34;;;;;;;;;;;19.00;59.70;;;;;;4935875;29;19934;-63
2022/05/28 11:30:08;;;;;;;;;;;18.90;59.30;;;;;;4935830;29;20367;-62
2022/05/28 11:32:39;;;;;;;;;;;18.80;59.60;;;;;;4935855;29;19922;-63
2022/05/28 11:35:13;;;;;;;;;;;18.60;60.90;;;;;;4936020;29;19934;-71
2022/05/28 11:37:42;;;;;;;;;;;18.60;60.40;;;;;;4936093;29;19915;-62
2022/05/28 11:40:11;;;;;;;;;;;18.50;61.00;;;;;;4936047;29;20009;-64
2022/05/28 11:42:47;;;;;;;;;;;18.40;60.60;;;;;;4936186;29;19915;-67
2022/05/28 11:45:32;;;;;;;;;;;18.40;60.90;;;;;;4935788;29;19957;-64
2022/05/28 11:48:04;;;;;;;;;;;18.10;61.60;;;;;;4936701;29;19911;-64
2022/05/28 11:53:26;;;;;;;;;;;18.00;62.40;;;;;;4939978;29;19967;-68
2022/05/28 11:55:53;;;;;;;;;;;18.10;62.00;;;;;;4939689;29;19915;-66
2022/05/28 11:58:22;;;;;;;;;;;18.20;62.00;;;;;;4940998;29;19935;-70
2022/05/28 12:00:52;;;;;;;;;;;18.20;60.70;;;;;;4940968;29;19911;-67
2022/05/28 12:03:20;;;;;;;;;;;18.30;61.20;;;;;;4940356;29;19987;-69
2022/05/28 12:05:50;;;;;;;;;;;18.40;61.40;;;;;;4940908;29;20402;-68
2022/05/28 12:08:22;;;;;;;;;;;18.50;61.10;;;;;;4939672;29;20382;-68
2022/05/28 12:10:48;;;;;;;;;;;18.30;60.50;;;;;;4939704;29;19933;-66
2022/05/28 12:13:26;;;;;;;;;;;18.40;61.00;;;;;;4939773;29;20355;-68
2022/05/28 12:16:01;;;;;;;;;;;18.50;60.30;;;;;;4939277;29;20390;-68
2022/05/28 12:18:27;;;;;;;;;;;18.70;60.00;;;;;;4939316;29;19911;-64
2022/05/28 12:20:54;;;;;;;;;;;18.50;60.40;;;;;;4939049;29;20267;-66
2022/05/28 12:23:27;;;;;;;;;;;18.50;60.50;;;;;;4938944;29;19918;-64
2022/05/28 12:25:53;;;;;;;;;;;18.40;61.00;;;;;;4938766;29;19911;-64
2022/05/28 12:28:31;;;;;;;;;;;18.30;60.50;;;;;;4938884;29;19911;-66
2022/05/28 12:31:02;;;;;;;;;;;18.50;60.20;;;;;;4938692;29;20532;-64
2022/05/28 12:33:32;;;;;;;;;;;18.50;60.50;;;;;;4921309;29;19910;-65
2022/05/28 12:36:02;;;;;;;;;;;18.60;60.20;;;;;;4939099;29;19918;-64
2022/05/28 12:38:27;;;;;;;;;;;18.60;59.30;;;;;;4938611;29;19918;-64
2022/05/28 12:40:54;;;;;;;;;;;18.60;58.80;;;;;;4938581;29;19915;-64
2022/05/28 12:43:29;;;;;;;;;;;18.70;58.70;;;;;;4938235;29;19918;-66
2022/05/28 12:45:55;;;;;;;;;;;18.60;59.20;;;;;;4952922;28;20460;-68
2022/05/28 12:48:21;;;;;;;;;;;18.60;58.80;;;;;;4938695;29;19917;-65
2022/05/28 12:51:25;;;;;;;;;;;18.60;58.80;;;;;;4938489;29;20001;-65
2022/05/28 12:53:53;;;;;;;;;;;18.50;58.50;;;;;;4917475;29;19915;-66
2022/05/28 12:56:22;;;;;;;;;;;18.50;58.30;;;;;;4917619;29;20001;-65
2022/05/28 12:58:47;;;;;;;;;;;18.60;58.20;;;;;;4940688;29;19922;-63
2022/05/28 13:01:22;;;;;;;;;;;18.70;58.40;;;;;;4940247;29;19915;-63
2022/05/28 13:03:49;;;;;;;;;;;18.60;57.60;;;;;;4956437;29;19922;-63
2022/05/28 13:06:27;;;;;;;;;;;18.80;57.80;;;;;;4940776;29;20282;-62
2022/05/28 13:09:03;;;;;;;;;;;19.00;57.10;;;;;;4956376;28;19942;-65
2022/05/28 13:11:32;;;;;;;;;;;19.00;56.30;;;;;;4957384;29;19960;-67
2022/05/28 13:14:18;;;;;;;;;;;18.90;56.60;;;;;;4954258;29;19915;-63
2022/05/28 13:16:51;;;;;;;;;;;18.80;56.90;;;;;;4945825;29;19962;-65
2022/05/28 13:19:23;;;;;;;;;;;18.80;56.80;;;;;;4920684;29;19921;-65
2022/05/28 13:21:56;;;;;;;;;;;18.80;57.20;;;;;;4957198;29;19915;-65
2022/05/28 13:24:34;;;;;;;;;;;19.00;56.80;;;;;;4957129;29;20035;-64
2022/05/28 13:27:02;;;;;;;;;;;19.10;57.00;;;;;;4957490;29;19918;-67
2022/05/28 13:29:31;;;;;;;;;;;19.00;56.80;;;;;;4957268;29;20013;-62
2022/05/28 13:32:04;;;;;;;;;;;19.00;57.20;;;;;;4957236;29;19911;-65
2022/05/28 13:34:30;;;;;;;;;;;19.00;56.80;;;;;;4957309;29;19918;-66
2022/05/28 13:36:57;;;;;;;;;;;19.20;56.60;;;;;;4957132;29;19911;-65
2022/05/28 13:39:23;;;;;;;;;;;19.20;55.80;;;;;;4930919;29;19986;-66
2022/05/28 13:41:49;;;;;;;;;;;19.20;55.30;;;;;;4946331;29;19945;-67
2022/05/28 13:44:20;;;;;;;;;;;19.30;55.40;;;;;;4946591;29;19922;-67
2022/05/28 13:46:49;;;;;;;;;;;19.60;54.60;;;;;;4951757;29;20294;-65
2022/05/28 13:49:16;;;;;;;;;;;19.60;54.30;;;;;;4947115;29;19918;-69
2022/05/28 13:51:52;;;;;;;;;;;19.70;53.60;;;;;;4945647;29;19974;-66
2022/05/28 13:54:18;;;;;;;;;;;19.60;53.30;;;;;;4946057;29;19918;-67
2022/05/28 13:56:55;;;;;;;;;;;19.60;53.70;;;;;;4947188;29;19911;-66
2022/05/28 13:59:28;;;;;;;;;;;19.50;53.70;;;;;;4947602;29;20025;-66
2022/05/28 14:01:53;;;;;;;;;;;19.50;54.00;;;;;;4946442;29;19911;-65
2022/05/28 14:04:21;;;;;;;;;;;19.70;53.30;;;;;;4945385;29;19926;-67
2022/05/28 14:06:53;;;;;;;;;;;19.60;53.00;;;;;;4948457;29;19910;-66
2022/05/28 14:09:19;;;;;;;;;;;19.60;53.30;;;;;;4950462;29;19925;-67
2022/05/28 14:11:46;;;;;;;;;;;19.60;53.80;;;;;;4946433;29;19915;-66
2022/05/28 14:14:18;;;;;;;;;;;19.60;53.60;;;;;;4947411;29;20394;-66
2022/05/28 14:16:46;;;;;;;;;;;19.70;53.60;;;;;;4944157;29;20335;-66
2022/05/28 14:19:35;;;;;;;;;;;19.80;53.60;;;;;;4945390;29;19910;-67
2022/05/28 14:22:02;;;;;;;;;;;19.80;53.10;;;;;;4929524;29;20283;-68
2022/05/28 14:24:31;;;;;;;;;;;19.90;53.50;;;;;;4946371;29;19919;-70
2022/05/28 14:26:59;;;;;;;;;;;19.90;52.90;;;;;;4945123;29;19958;-65
2022/05/28 14:29:32;;;;;;;;;;;19.90;53.30;;;;;;4946384;29;19966;-65
2022/05/28 14:31:59;;;;;;;;;;;19.70;53.20;;;;;;4929673;29;19917;-68
2022/05/28 14:34:25;;;;;;;;;;;19.80;53.10;;;;;;4945992;29;19914;-67
2022/05/28 14:36:58;;;;;;;;;;;19.70;53.50;;;;;;4945040;29;19998;-67